Terminal Aerodrome Forecast
Issued by NWS

Home | Current Version | Previous Version | Text Only | Print | Product List | Glossary Off
Versions: 1 2 3 4 5 6 7 8 9 10 11 12 13 14 15 16 17

571
FTUS43 KMPX 201738
TAFAXN
TAF
KAXN 201738Z 2018/2118 34010KT P6SM BKN120
     FM210900 07004KT P6SM SCT150
     FM211300 11006KT P6SM BKN200=

USA.gov is the U.S. government's official web portal to all federal, state and local government web resources and services.